Time;durP1;ratioP1;P1;durP2;ratioP2;P2;SDS_P1;SDS_P2;PMS_P1;PMS_P2;Temp;Humidity;BMP_temperature;BMP_pressure;BME280_temperature;BME280_humidity;BME280_pressure;Samples;Min_cycle;Max_cycle;Signal;HPM_P1;HPM_P2
2022/11/23 00:02:10;;;;;;;1999.90;999.90;;;;;;;5.45;100.00;93085.97;4977175;28;20174;-68
2022/11/23 00:04:35;;;;;;;1999.90;999.90;;;;;;;5.47;100.00;93083.63;4975997;28;20607;-68
2022/11/23 00:07:00;;;;;;;1999.90;999.90;;;;;;;5.47;100.00;93078.94;4976858;28;20177;-67
2022/11/23 00:09:26;;;;;;;1999.90;999.90;;;;;;;5.47;100.00;93078.19;4976257;28;20179;-68
2022/11/23 00:11:51;;;;;;;1999.90;999.90;;;;;;;5.45;100.00;93075.91;4976933;28;20183;-66
2022/11/23 00:14:16;;;;;;;1999.90;999.90;;;;;;;5.43;100.00;93088.34;4976525;28;20182;-65
2022/11/23 00:16:42;;;;;;;1999.90;999.90;;;;;;;5.46;100.00;93087.50;4976194;28;20182;-65
2022/11/23 00:19:08;;;;;;;1999.90;999.90;;;;;;;5.45;100.00;93085.97;4976784;28;20173;-66
2022/11/23 00:21:33;;;;;;;1999.90;999.90;;;;;;;5.45;100.00;93080.56;4976142;28;20185;-65
2022/11/23 00:23:59;;;;;;;1999.90;999.90;;;;;;;5.44;100.00;93095.28;4974643;28;20202;-65
2022/11/23 00:26:24;;;;;;;1999.90;999.90;;;;;;;5.45;100.00;93083.25;4976481;28;20278;-66
2022/11/23 00:28:49;;;;;;;1999.90;999.90;;;;;;;5.47;100.00;93083.63;4976363;28;20180;-69
2022/11/23 00:31:17;;;;;;;1999.90;999.90;;;;;;;5.48;100.00;93077.00;4976503;28;20261;-67
2022/11/23 00:33:48;;;;;;;1999.90;999.90;;;;;;;5.48;100.00;93082.41;4975818;28;20633;-67
2022/11/23 00:36:14;;;;;;;1999.90;999.90;;;;;;;5.46;100.00;93082.84;4975542;28;20187;-68
2022/11/23 00:38:41;;;;;;;1999.90;999.90;;;;;;;5.49;100.00;93086.63;4975537;28;20192;-67
2022/11/23 00:41:12;;;;;;;1999.90;999.90;;;;;;;5.47;100.00;93080.91;4975779;28;20179;-69
2022/11/23 00:43:38;;;;;;;1999.90;999.90;;;;;;;5.48;100.00;93082.41;4975807;28;20183;-70
2022/11/23 00:46:09;;;;;;;1999.90;999.90;;;;;;;5.48;100.00;93079.72;4975622;28;20280;-68
2022/11/23 00:48:34;;;;;;;1999.90;999.90;;;;;;;5.45;100.00;93080.56;4975973;28;20206;-67
2022/11/23 00:51:01;;;;;;;1999.90;999.90;;;;;;;5.43;100.00;93074.84;4975466;28;20270;-66
2022/11/23 00:53:27;;;;;;;1999.90;999.90;;;;;;;5.39;100.00;93068.75;4975410;28;20706;-66
2022/11/23 00:55:54;;;;;;;1999.90;999.90;;;;;;;5.39;100.00;93072.19;4975202;28;20321;-68
2022/11/23 00:58:19;;;;;;;1999.90;999.90;;;;;;;5.41;100.00;93074.47;4975787;28;20178;-67
2022/11/23 01:00:45;;;;;;;1999.90;999.90;;;;;;;5.40;100.00;93070.25;4975320;28;20209;-67
2022/11/23 01:03:10;;;;;;;1999.90;999.90;;;;;;;5.39;100.00;93076.88;4974915;28;20226;-67
2022/11/23 01:05:37;;;;;;;1999.90;999.90;;;;;;;5.39;100.00;93066.78;4974955;28;20238;-62
2022/11/23 01:08:03;;;;;;;1999.90;999.90;;;;;;;5.40;100.00;93072.97;4975799;28;20240;-67
2022/11/23 01:10:29;;;;;;;1999.90;999.90;;;;;;;5.40;100.00;93072.97;4975223;28;20189;-70
2022/11/23 01:12:54;;;;;;;1999.90;999.90;;;;;;;5.36;100.00;93066.91;4975194;28;20192;-70
2022/11/23 01:15:20;;;;;;;1999.90;999.90;;;;;;;5.31;100.00;93072.81;4974788;28;20263;-69
2022/11/23 01:17:45;;;;;;;1999.90;999.90;;;;;;;5.28;100.00;93071.72;4975063;28;20187;-68
2022/11/23 01:20:10;;;;;;;1999.90;999.90;;;;;;;5.26;100.00;93078.75;4975077;28;20183;-69
2022/11/23 01:22:36;;;;;;;1999.90;999.90;;;;;;;5.16;100.00;93075.13;4974746;28;20199;-60
2022/11/23 01:25:01;;;;;;;1999.90;999.90;;;;;;;5.15;100.00;93083.66;4974701;28;20293;-63
2022/11/23 01:27:27;;;;;;;1999.90;999.90;;;;;;;5.09;100.00;93074.53;4974618;28;20190;-65
2022/11/23 01:29:52;;;;;;;1999.90;999.90;;;;;;;5.10;100.00;93070.69;4975115;28;20236;-65
2022/11/23 01:32:17;;;;;;;1999.90;999.90;;;;;;;5.08;100.00;93083.84;4975054;28;20194;-65
2022/11/23 01:34:43;;;;;;;1999.90;999.90;;;;;;;5.07;100.00;93076.94;4974578;28;20186;-65
2022/11/23 01:37:08;;;;;;;1999.90;999.90;;;;;;;5.05;100.00;93074.66;4974941;28;20185;-65
2022/11/23 01:39:33;;;;;;;1999.90;999.90;;;;;;;5.03;100.00;93065.44;4974731;28;20263;-65
2022/11/23 01:41:59;;;;;;;1999.90;999.90;;;;;;;5.04;100.00;93061.53;4975438;28;20188;-63
2022/11/23 01:44:24;;;;;;;1999.90;999.90;;;;;;;5.05;100.00;93063.06;4975278;28;20209;-66
2022/11/23 01:46:49;;;;;;;1999.90;999.90;;;;;;;5.04;100.00;93059.63;4974667;28;20619;-66
2022/11/23 01:49:15;;;;;;;1999.90;999.90;;;;;;;5.05;100.00;93061.13;4974487;28;20190;-66
2022/11/23 01:51:44;;;;;;;1999.90;999.90;;;;;;;5.08;100.00;93056.81;4974680;28;20268;-66
2022/11/23 01:54:16;;;;;;;1999.90;999.90;;;;;;;5.05;100.00;93052.25;4977102;28;20181;-66
2022/11/23 01:56:46;;;;;;;1999.90;999.90;;;;;;;5.06;100.00;93053.78;4978606;28;20187;-66
2022/11/23 01:59:15;;;;;;;1999.90;999.90;;;;;;;5.06;100.00;93057.22;4978270;28;20180;-60
2022/11/23 02:01:42;;;;;;;1999.90;999.90;;;;;;;5.06;100.00;93064.59;4978052;28;20274;-63
2022/11/23 02:04:13;;;;;;;1999.90;999.90;;;;;;;5.06;100.00;93053.78;4977438;28;20195;-62
2022/11/23 02:06:39;;;;;;;1999.90;999.90;;;;;;;5.07;100.00;93053.31;4954520;29;20256;-62
2022/11/23 02:09:06;;;;;;;1999.90;999.90;;;;;;;5.07;100.00;93052.59;4954408;29;20189;-62
2022/11/23 02:11:32;;;;;;;1999.90;999.90;;;;;;;5.05;100.00;93052.25;4938294;29;20185;-62
2022/11/23 02:13:59;;;;;;;1999.90;999.90;;;;;;;5.03;100.00;93058.06;4938144;29;20553;-62
2022/11/23 02:16:24;;;;;;;1999.90;999.90;;;;;;;5.02;100.00;93047.69;4938925;29;20249;-62
2022/11/23 02:18:51;;;;;;;1999.90;999.90;;;;;;;5.00;100.00;93045.44;4954342;29;20194;-67
2022/11/23 02:21:16;;;;;;;1999.90;999.90;;;;;;;5.00;100.00;93048.13;4938483;29;20229;-70
2022/11/23 02:24:00;;;;;;;1999.90;999.90;;;;;;;5.00;100.00;93050.06;4954446;29;20185;-70
2022/11/23 02:26:29;;;;;;;1999.90;999.90;;;;;;;4.97;100.00;93048.19;4954900;29;20273;-67
2022/11/23 02:29:09;;;;;;;1999.90;999.90;;;;;;;4.98;100.00;93036.97;4938249;29;20177;-68
2022/11/23 02:31:35;;;;;;;1999.90;999.90;;;;;;;4.97;100.00;93040.09;4938610;29;20217;-68
2022/11/23 02:34:00;;;;;;;1999.90;999.90;;;;;;;4.96;100.00;93033.91;4938433;29;20218;-68
2022/11/23 02:36:35;;;;;;;1999.90;999.90;;;;;;;4.94;100.00;93030.13;4938057;29;20185;-67
2022/11/23 02:39:07;;;;;;;1999.90;999.90;;;;;;;4.90;100.00;93040.28;4954092;29;20244;-64
2022/11/23 02:41:54;;;;;;;1999.90;999.90;;;;;;;4.86;100.00;93039.59;4954439;29;20183;-65
2022/11/23 02:44:40;;;;;;;1999.90;999.90;;;;;;;4.81;100.00;93042.81;4961137;28;20254;-64
2022/11/23 02:47:07;;;;;;;1999.90;999.90;;;;;;;4.78;100.00;93049.06;4978687;28;20203;-65
2022/11/23 02:49:33;;;;;;;1999.90;999.90;;;;;;;4.73;100.00;93041.50;4980860;28;20194;-66
2022/11/23 02:51:58;;;;;;;1999.90;999.90;;;;;;;4.65;100.00;93042.81;4981301;28;20244;-66
2022/11/23 02:54:23;;;;;;;1999.90;999.90;;;;;;;4.60;100.00;93046.03;4980648;28;20236;-63
2022/11/23 02:56:49;;;;;;;1999.90;999.90;;;;;;;4.58;100.00;93056.50;4981215;28;20172;-66
2022/11/23 02:59:14;;;;;;;1999.90;999.90;;;;;;;4.55;100.00;93051.97;4981604;28;20183;-67
2022/11/23 03:01:40;;;;;;;1999.90;999.90;;;;;;;4.53;100.00;93062.41;4980661;28;20172;-67
2022/11/23 03:04:06;;;;;;;1999.90;999.90;;;;;;;4.46;100.00;93065.28;4980502;28;20210;-67
2022/11/23 03:06:32;;;;;;;1999.90;999.90;;;;;;;4.43;100.00;93060.72;4980476;28;20618;-67
2022/11/23 03:08:57;;;;;;;1999.90;999.90;;;;;;;4.40;100.00;93067.00;4980783;28;20187;-67
2022/11/23 03:11:22;;;;;;;1999.90;999.90;;;;;;;4.37;100.00;93062.41;4980588;28;20173;-66
2022/11/23 03:13:48;;;;;;;1999.90;999.90;;;;;;;4.35;100.00;93059.38;4980644;28;20211;-66
2022/11/23 03:16:13;;;;;;;1999.90;999.90;;;;;;;4.33;100.00;93067.16;4980432;28;20184;-64
2022/11/23 03:18:39;;;;;;;1999.90;999.90;;;;;;;4.28;100.00;93068.41;4980363;28;20190;-64
2022/11/23 03:21:07;;;;;;;1999.90;999.90;;;;;;;4.24;100.00;93069.66;4980458;28;20207;-64
2022/11/23 03:23:34;;;;;;;1999.90;999.90;;;;;;;4.21;100.00;93065.09;4979937;28;20181;-66
2022/11/23 03:25:59;;;;;;;1999.90;999.90;;;;;;;4.20;100.00;93066.28;4980112;28;20219;-66
2022/11/23 03:28:25;;;;;;;1999.90;999.90;;;;;;;4.17;100.00;93061.69;4979866;28;20180;-64
2022/11/23 03:30:51;;;;;;;1999.90;999.90;;;;;;;4.13;100.00;93063.72;4980673;28;20180;-69
2022/11/23 03:33:17;;;;;;;1999.90;999.90;;;;;;;4.12;100.00;93056.81;4980079;28;20202;-62
2022/11/23 03:35:43;;;;;;;1999.90;999.90;;;;;;;4.08;100.00;93051.47;4980071;28;20183;-69
2022/11/23 03:38:08;;;;;;;1999.90;999.90;;;;;;;4.08;100.00;93045.34;4980019;28;20258;-68
2022/11/23 03:40:34;;;;;;;1999.90;999.90;;;;;;;4.06;100.00;93047.69;4979728;28;20180;-70
2022/11/23 03:42:59;;;;;;;1999.90;999.90;;;;;;;4.01;100.00;93038.16;4980482;28;20283;-70
2022/11/23 03:45:24;;;;;;;1999.90;999.90;;;;;;;3.97;100.00;93040.16;4979821;28;20204;-67
2022/11/23 03:47:50;;;;;;;1999.90;999.90;;;;;;;3.94;100.00;93037.53;4980310;28;20176;-67
2022/11/23 03:50:15;;;;;;;1999.90;999.90;;;;;;;3.93;100.00;93033.31;4980108;28;20532;-69
2022/11/23 03:52:41;;;;;;;1999.90;999.90;;;;;;;3.90;100.00;93034.94;4980789;28;20187;-65
2022/11/23 03:55:06;;;;;;;1999.90;999.90;;;;;;;3.88;100.00;93031.09;4979753;28;20236;-64
2022/11/23 03:57:32;;;;;;;1999.90;999.90;;;;;;;3.88;100.00;93017.59;4979159;28;20263;-63
2022/11/23 03:59:57;;;;;;;1999.90;999.90;;;;;;;3.89;100.00;93016.44;4979626;28;20180;-63
2022/11/23 04:02:23;;;;;;;1999.90;999.90;;;;;;;3.90;100.00;93012.56;4980082;28;20234;-63
2022/11/23 04:04:48;;;;;;;1999.90;999.90;;;;;;;3.88;100.00;93004.13;4979491;28;20207;-64
2022/11/23 04:07:14;;;;;;;1999.90;999.90;;;;;;;3.85;100.00;92994.91;4979541;28;20274;-64
2022/11/23 04:09:39;;;;;;;1999.90;999.90;;;;;;;3.83;100.00;93001.91;4980172;28;20171;-69
2022/11/23 04:12:05;;;;;;;1999.90;999.90;;;;;;;3.82;100.00;93000.41;4979584;28;20230;-63
2022/11/23 04:14:30;;;;;;;1999.90;999.90;;;;;;;3.81;100.00;92998.88;4979259;28;20179;-62
2022/11/23 04:16:56;;;;;;;1999.90;999.90;;;;;;;3.82;100.00;92995.00;4979276;28;20180;-62
2022/11/23 04:19:21;;;;;;;1999.90;999.90;;;;;;;3.80;100.00;92986.56;4979248;28;20203;-62
2022/11/23 04:21:47;;;;;;;1999.90;999.90;;;;;;;3.78;100.00;92994.34;4979005;28;20180;-62
2022/11/23 04:24:12;;;;;;;1999.90;999.90;;;;;;;3.75;100.00;92995.16;4979768;28;20211;-62
2022/11/23 04:26:39;;;;;;;1999.90;999.90;;;;;;;3.75;100.00;92978.97;4979032;28;20267;-61
2022/11/23 04:29:05;;;;;;;1999.90;999.90;;;;;;;3.74;100.00;92993.63;4979559;28;20263;-60
2022/11/23 04:31:31;;;;;;;1999.90;999.90;;;;;;;3.71;100.00;92994.47;4979051;28;20184;-67
2022/11/23 04:33:57;;;;;;;1999.90;999.90;;;;;;;3.69;100.00;92991.44;4979083;28;20188;-66
2022/11/23 04:36:22;;;;;;;1999.90;999.90;;;;;;;3.67;100.00;92989.16;4979362;28;20188;-66
2022/11/23 04:38:48;;;;;;;1999.90;999.90;;;;;;;3.67;100.00;92986.44;4978533;28;20262;-67
2022/11/23 04:41:14;;;;;;;1999.90;999.90;;;;;;;3.68;100.00;92995.31;4978716;28;20198;-67
2022/11/23 04:43:39;;;;;;;1999.90;999.90;;;;;;;3.64;100.00;92984.59;4978878;28;20203;-67
2022/11/23 04:46:04;;;;;;;1999.90;999.90;;;;;;;3.66;100.00;92984.16;4978656;28;20227;-61
2022/11/23 04:48:30;;;;;;;1999.90;999.90;;;;;;;3.70;100.00;92976.75;4978837;28;20185;-62
2022/11/23 04:50:56;;;;;;;1999.90;999.90;;;;;;;3.69;100.00;92972.53;4979091;28;20203;-62
2022/11/23 04:53:22;;;;;;;1999.90;999.90;;;;;;;3.68;100.00;92963.69;4979261;28;20222;-62
2022/11/23 04:55:47;;;;;;;1999.90;999.90;;;;;;;3.71;100.00;92962.09;4978398;28;20220;-62
2022/11/23 04:58:12;;;;;;;1999.90;999.90;;;;;;;3.72;100.00;92963.63;4978617;28;20180;-61
2022/11/23 05:00:38;;;;;;;1999.90;999.90;;;;;;;3.73;100.00;92948.94;4978557;28;20168;-61
2022/11/23 05:03:03;;;;;;;1999.90;999.90;;;;;;;3.72;100.00;92952.81;4978973;28;20184;-62
2022/11/23 05:05:29;;;;;;;1999.90;999.90;;;;;;;3.75;100.00;92946.59;4977973;28;20211;-62
2022/11/23 05:07:55;;;;;;;1999.90;999.90;;;;;;;3.74;100.00;92945.06;4978296;28;20191;-64
2022/11/23 05:10:20;;;;;;;1999.90;999.90;;;;;;;3.77;100.00;92936.88;4977863;28;20203;-62
2022/11/23 05:12:46;;;;;;;1999.90;999.90;;;;;;;3.79;100.00;92933.78;4978905;28;20540;-62
2022/11/23 05:15:13;;;;;;;1999.90;999.90;;;;;;;3.84;100.00;92938.66;4978758;28;20350;-63
2022/11/23 05:17:38;;;;;;;1999.90;999.90;;;;;;;3.88;100.00;92933.94;4978242;28;20187;-63
2022/11/23 05:20:04;;;;;;;1999.90;999.90;;;;;;;3.90;100.00;92934.28;4977854;28;20180;-63
2022/11/23 05:22:30;;;;;;;1999.90;999.90;;;;;;;3.92;100.00;92940.00;4978290;28;20190;-63
2022/11/23 05:24:55;;;;;;;1999.90;999.90;;;;;;;3.94;100.00;92938.44;4977914;28;20203;-66
2022/11/23 05:27:20;;;;;;;1999.90;999.90;;;;;;;3.89;100.00;92935.47;4978002;28;20184;-66
2022/11/23 05:29:46;;;;;;;1999.90;999.90;;;;;;;3.92;100.00;92940.00;4978665;28;20187;-65
2022/11/23 05:32:11;;;;;;;1999.90;999.90;;;;;;;3.94;100.00;92932.25;4977896;28;20187;-65
2022/11/23 05:34:36;;;;;;;1999.90;999.90;;;;;;;3.99;100.00;92934.44;4978149;28;20610;-66
2022/11/23 05:37:02;;;;;;;1999.90;999.90;;;;;;;4.03;100.00;92935.88;4978493;28;20176;-65
2022/11/23 05:39:27;;;;;;;1999.90;999.90;;;;;;;4.04;100.00;92932.00;4978558;28;20230;-66
2022/11/23 05:41:53;;;;;;;1999.90;999.90;;;;;;;4.06;100.00;92934.28;4978532;28;20203;-72
2022/11/23 05:44:19;;;;;;;1999.90;999.90;;;;;;;4.04;100.00;92942.81;4978488;28;20218;-60
2022/11/23 05:46:44;;;;;;;1999.90;999.90;;;;;;;4.05;100.00;92941.63;4977859;28;20187;-59
2022/11/23 05:49:09;;;;;;;1999.90;999.90;;;;;;;4.04;100.00;92942.06;4978457;28;20176;-59
2022/11/23 05:51:35;;;;;;;1999.90;999.90;;;;;;;4.08;100.00;92948.13;4977520;28;20172;-60
2022/11/23 05:54:00;;;;;;;1999.90;999.90;;;;;;;4.08;100.00;92937.34;4977830;28;20237;-61
2022/11/23 05:56:26;;;;;;;1999.90;999.90;;;;;;;4.09;100.00;92944.25;4977574;28;20179;-61
2022/11/23 05:58:54;;;;;;;1999.90;999.90;;;;;;;4.08;100.00;92951.56;4977848;28;20176;-67
2022/11/23 06:01:19;;;;;;;1999.90;999.90;;;;;;;4.09;100.00;92960.44;4978448;28;20176;-60
2022/11/23 06:03:44;;;;;;;1999.90;999.90;;;;;;;4.03;100.00;92946.69;4977889;28;20199;-60
2022/11/23 06:06:10;;;;;;;1999.90;999.90;;;;;;;3.96;100.00;92962.31;4977752;28;20254;-61
2022/11/23 06:08:35;;;;;;;1999.90;999.90;;;;;;;3.97;100.00;92966.53;4978390;28;20176;-62
2022/11/23 06:11:01;;;;;;;1999.90;999.90;;;;;;;3.92;100.00;92972.41;4977793;28;20200;-59
2022/11/23 06:13:26;;;;;;;1999.90;999.90;;;;;;;3.89;100.00;92967.88;4977509;28;20172;-60
2022/11/23 06:15:52;;;;;;;1999.90;999.90;;;;;;;3.84;100.00;92971.81;4977557;28;20176;-59
2022/11/23 06:18:17;;;;;;;1999.90;999.90;;;;;;;3.88;100.00;92966.31;4978338;28;20172;-60
2022/11/23 06:20:42;;;;;;;1999.90;999.90;;;;;;;3.90;100.00;92972.84;4978280;28;20176;-66
2022/11/23 06:23:08;;;;;;;1999.90;999.90;;;;;;;3.98;100.00;92970.72;4980580;28;20537;-66
2022/11/23 06:25:33;;;;;;;1999.90;999.90;;;;;;;4.01;100.00;92951.00;4981080;28;20290;-66
2022/11/23 06:28:00;;;;;;;1999.90;999.90;;;;;;;4.00;100.00;92961.03;4981135;28;20181;-66
2022/11/23 06:30:28;;;;;;;1999.90;999.90;;;;;;;4.01;100.00;92959.88;4980853;28;20267;-65
2022/11/23 06:32:53;;;;;;;1999.90;999.90;;;;;;;4.06;100.00;92962.06;4981114;28;20191;-66
2022/11/23 06:35:18;;;;;;;1999.90;999.90;;;;;;;4.11;100.00;92964.22;4981594;28;20184;-69
2022/11/23 06:37:46;;;;;;;1999.90;999.90;;;;;;;4.11;100.00;92968.91;4981122;28;20180;-65
2022/11/23 06:40:12;;;;;;;1999.90;999.90;;;;;;;4.08;100.00;92967.03;4980767;28;20180;-60
2022/11/23 06:42:37;;;;;;;1999.90;999.90;;;;;;;4.10;100.00;92978.94;4981429;28;20176;-60
2022/11/23 06:45:03;;;;;;;1999.90;999.90;;;;;;;4.13;100.00;92972.69;4981231;28;20211;-60
2022/11/23 06:47:29;;;;;;;1999.90;999.90;;;;;;;4.12;100.00;92975.81;4981362;28;20183;-60
2022/11/23 06:49:54;;;;;;;1999.90;999.90;;;;;;;4.19;100.00;92981.03;4980423;28;20176;-59
2022/11/23 06:52:19;;;;;;;1999.90;999.90;;;;;;;4.31;100.00;92974.97;4980824;28;20186;-60
2022/11/23 06:54:45;;;;;;;1999.90;999.90;;;;;;;4.72;100.00;92966.97;4980375;28;20289;-63
2022/11/23 06:57:10;;;;;;;1999.90;999.90;;;;;;;5.39;100.00;92941.59;4980674;28;20180;-64
2022/11/23 06:59:36;;;;;;;1999.90;999.90;;;;;;;5.56;100.00;92956.53;4980481;28;20247;-65
2022/11/23 07:02:01;;;;;;;1999.90;999.90;;;;;;;5.40;100.00;92999.91;4981129;28;20226;-64
2022/11/23 07:04:26;;;;;;;1999.90;999.90;;;;;;;5.23;100.00;93037.09;4979983;28;20205;-63
2022/11/23 07:06:52;;;;;;;1999.90;999.90;;;;;;;5.15;100.00;93076.34;4980482;28;20178;-63
2022/11/23 07:09:17;;;;;;;1999.90;999.90;;;;;;;5.09;100.00;93096.19;4980436;28;20187;-63
2022/11/23 07:11:43;;;;;;;1999.90;999.90;;;;;;;4.99;100.00;93121.56;4980209;28;20181;-65
2022/11/23 07:14:08;;;;;;;1999.90;999.90;;;;;;;4.89;100.00;93147.66;4981060;28;20240;-72
2022/11/23 07:16:34;;;;;;;1999.90;999.90;;;;;;;4.93;100.00;93163.81;4980622;28;20185;-63
2022/11/23 07:18:59;;;;;;;1999.90;999.90;;;;;;;4.86;100.00;93193.69;4980448;28;20182;-65
2022/11/23 07:21:24;;;;;;;1999.90;999.90;;;;;;;4.95;100.00;93205.44;4980748;28;20183;-65
2022/11/23 07:23:50;;;;;;;1999.90;999.90;;;;;;;4.96;100.00;93233.25;4980131;28;20181;-64
2022/11/23 07:26:15;;;;;;;1999.90;999.90;;;;;;;5.04;100.00;93246.22;4979940;28;20269;-65
2022/11/23 07:28:41;;;;;;;1999.90;999.90;;;;;;;5.11;100.00;93275.81;4980208;28;20211;-65
2022/11/23 07:31:06;;;;;;;1999.90;999.90;;;;;;;5.12;100.00;93301.66;4979875;28;20168;-59
2022/11/23 07:33:32;;;;;;;1999.90;999.90;;;;;;;5.12;100.00;93322.53;4980192;28;20528;-67
2022/11/23 07:36:01;;;;;;;1999.90;999.90;;;;;;;5.29;100.00;93332.22;4979970;28;20205;-67
2022/11/23 07:38:26;;;;;;;1999.90;999.90;;;;;;;5.39;100.00;93352.88;4979989;28;20177;-67
2022/11/23 07:40:52;;;;;;;1999.90;999.90;;;;;;;5.44;100.00;93363.19;4997150;28;20184;-67
2022/11/23 07:43:17;;;;;;;1999.90;999.90;;;;;;;5.56;100.00;93384.19;4980027;28;20168;-68
2022/11/23 07:45:42;;;;;;;1999.90;999.90;;;;;;;5.62;100.00;93404.16;4980352;28;20197;-68
2022/11/23 07:48:08;;;;;;;1999.90;999.90;;;;;;;5.59;100.00;93434.78;4979812;28;20183;-68
2022/11/23 07:50:37;;;;;;;1999.90;999.90;;;;;;;5.75;100.00;93454.53;4979657;28;20173;-62
2022/11/23 07:53:04;;;;;;;1999.90;999.90;;;;;;;5.96;100.00;93481.19;4980056;28;20180;-65
2022/11/23 07:55:30;;;;;;;1999.90;999.90;;;;;;;6.22;100.00;93517.38;4979690;28;20232;-65
2022/11/23 07:57:56;;;;;;;1999.90;999.90;;;;;;;6.85;100.00;93543.75;4979227;28;20182;-65
2022/11/23 08:00:23;;;;;;;1999.90;999.90;;;;;;;7.28;100.00;93591.56;4979423;28;20173;-66
2022/11/23 08:02:48;;;;;;;1999.90;999.90;;;;;;;7.37;100.00;93673.94;4980306;28;20215;-66
2022/11/23 08:05:14;;;;;;;1999.90;999.90;;;;;;;7.19;100.00;93757.75;4979494;28;20265;-65
2022/11/23 08:07:40;;;;;;;1999.90;999.90;;;;;;;7.47;100.00;93799.78;4980490;28;20179;-61
2022/11/23 08:10:05;;;;;;;1999.90;999.90;;;;;;;7.54;100.00;93843.09;4980064;28;20207;-67
2022/11/23 08:12:31;;;;;;;1999.90;999.90;;;;;;;7.53;100.00;93891.19;4980059;28;20266;-66
2022/11/23 08:14:56;;;;;;;1999.90;999.90;;;;;;;7.45;100.00;93913.47;4978939;28;20195;-65
2022/11/23 08:17:21;;;;;;;1999.90;999.90;;;;;;;7.44;100.00;93926.31;4979135;28;20255;-64
2022/11/23 08:19:47;;;;;;;1999.90;999.90;;;;;;;7.46;100.00;93951.09;4979162;28;20204;-65
2022/11/23 08:22:12;;;;;;;1999.90;999.90;;;;;;;7.42;100.00;93961.25;4979156;28;20197;-61
2022/11/23 08:24:38;;;;;;;1999.90;999.90;;;;;;;7.38;100.00;93962.50;4979544;28;20290;-63
2022/11/23 08:27:03;;;;;;;1999.90;999.90;;;;;;;7.32;100.00;93978.50;4978773;28;20175;-66
2022/11/23 08:29:29;;;;;;;1999.90;999.90;;;;;;;7.26;100.00;93988.34;4979578;28;20172;-62
2022/11/23 08:31:55;;;;;;;1999.90;999.90;;;;;;;7.35;100.00;93980.41;4978962;28;20230;-62
2022/11/23 08:34:20;;;;;;;1999.90;999.90;;;;;;;7.73;100.00;93980.81;4978886;28;20183;-63
2022/11/23 08:36:46;;;;;;;1999.90;999.90;;;;;;;8.03;100.00;93994.94;4978887;28;20179;-62
2022/11/23 08:39:13;;;;;;;1999.90;999.90;;;;;;;8.30;100.00;94003.69;4979241;28;20211;-62
2022/11/23 08:41:39;;;;;;;1999.90;999.90;;;;;;;8.70;100.00;94021.41;4978467;28;20168;-62
2022/11/23 08:44:04;;;;;;;1999.90;999.90;;;;;;;8.83;100.00;94040.56;4978931;28;20211;-60
2022/11/23 08:46:33;;;;;;;1999.90;999.90;;;;;;;8.78;100.00;94063.59;4978578;28;20215;-62
2022/11/23 08:48:58;;;;;;;1999.90;999.90;;;;;;;9.13;100.00;94062.00;4978734;28;20215;-70
2022/11/23 08:51:23;;;;;;;1999.90;999.90;;;;;;;9.35;100.00;94082.84;4979236;28;20179;-70
2022/11/23 08:53:49;;;;;;;1999.90;999.90;;;;;;;9.37;100.00;94094.06;4978209;28;20203;-71
2022/11/23 08:56:15;;;;;;;1999.90;999.90;;;;;;;9.27;100.00;94099.78;4995810;28;20223;-71
2022/11/23 08:58:40;;;;;;;1999.90;999.90;;;;;;;9.21;100.00;94110.41;4977764;28;20176;-70
2022/11/23 09:01:13;;;;;;;1999.90;999.90;;;;;;;9.11;100.00;94114.16;4978175;28;20204;-70
2022/11/23 09:03:40;;;;;;;1999.90;999.90;;;;;;;9.04;100.00;94117.03;4978068;28;20208;-65
2022/11/23 09:06:05;;;;;;;1999.90;999.90;;;;;;;8.88;100.00;94125.19;4978290;28;20203;-63
2022/11/23 09:08:31;;;;;;;1999.90;999.90;;;;;;;8.75;100.00;94107.97;4978366;28;20192;-63
2022/11/23 09:11:05;;;;;;;1999.90;999.90;;;;;;;8.73;100.00;94112.31;4978435;28;20180;-63
2022/11/23 09:13:30;;;;;;;1999.90;999.90;;;;;;;8.77;100.00;94100.16;4978763;28;20187;-64
2022/11/23 09:15:57;;;;;;;1999.90;999.90;;;;;;;8.73;100.00;94107.66;4977754;28;20179;-64
2022/11/23 09:18:23;;;;;;;1999.90;999.90;;;;;;;8.69;100.00;94098.81;4978962;28;20175;-64
2022/11/23 09:20:48;;;;;;;1999.90;999.90;;;;;;;8.82;100.00;94094.22;4978509;28;20215;-71
2022/11/23 09:23:14;;;;;;;1999.90;999.90;;;;;;;8.69;100.00;94098.81;4978574;28;20535;-64
2022/11/23 09:25:40;;;;;;;1999.90;999.90;;;;;;;8.81;100.00;94100.06;4977567;28;20204;-65
2022/11/23 09:28:05;;;;;;;1999.90;999.90;;;;;;;8.90;100.00;94101.06;4995126;28;20172;-65
2022/11/23 09:30:31;;;;;;;1999.90;999.90;;;;;;;8.91;100.00;94101.78;4978052;28;20177;-64
2022/11/23 09:32:56;;;;;;;1999.90;999.90;;;;;;;8.84;100.00;94102.72;4977942;28;20181;-64
2022/11/23 09:35:22;;;;;;;1999.90;999.90;;;;;;;8.83;100.00;94101.22;4977767;28;20211;-63
2022/11/23 09:37:53;;;;;;;1999.90;999.90;;;;;;;8.92;100.00;94093.22;4978816;28;20175;-64
2022/11/23 09:40:19;;;;;;;1999.90;999.90;;;;;;;8.98;100.00;94088.03;4978118;28;20180;-65
2022/11/23 09:43:22;;;;;;;1999.90;999.90;;;;;;;8.95;100.00;94091.59;4977904;28;20179;-66
2022/11/23 09:45:57;;;;;;;1999.90;999.90;;;;;;;9.00;100.00;94096.53;4969907;28;20238;-63
2022/11/23 09:48:26;;;;;;;1999.90;999.90;;;;;;;9.31;100.00;94092.28;4977821;28;20198;-63
2022/11/23 09:51:08;;;;;;;1999.90;999.90;;;;;;;10.50;100.00;94104.69;4978213;28;20184;-63
2022/11/23 09:53:49;;;;;;;1999.90;999.90;;;;;;;11.10;100.00;94109.09;4978403;28;20177;-64
2022/11/23 09:56:28;;;;;;;1999.90;999.90;;;;;;;11.99;100.00;94119.50;4979007;28;20222;-64
2022/11/23 09:58:57;;;;;;;1999.90;999.90;;;;;;;12.50;100.00;94112.59;4981925;28;20178;-65
2022/11/23 10:01:24;;;;;;;1999.90;999.90;;;;;;;12.88;100.00;94121.34;4981656;28;20191;-73
2022/11/23 10:03:49;;;;;;;1999.90;999.90;;;;;;;13.28;100.00;94131.16;4981617;28;20222;-70
2022/11/23 10:06:24;;;;;;;1999.90;999.90;;;;;;;13.43;100.00;94127.88;4981643;28;20203;-71
2022/11/23 10:09:18;;;;;;;1999.90;999.90;;;;;;;13.35;100.00;94130.09;4981288;28;20176;-70
2022/11/23 10:11:49;;;;;;;1999.90;999.90;;;;;;;13.47;100.00;94131.22;4981913;28;20226;-70
2022/11/23 10:14:15;;;;;;;1999.90;999.90;;;;;;;13.38;100.00;94128.44;4982254;28;20168;-71
2022/11/23 10:16:57;;;;;;;1999.90;999.90;;;;;;;13.94;100.00;94121.41;4981180;28;20184;-69
2022/11/23 10:19:49;;;;;;;1999.90;999.90;;;;;;;13.34;100.00;94123.09;4981191;28;20179;-70
2022/11/23 10:22:21;;;;;;;1999.90;999.90;;;;;;;12.81;100.00;94118.84;4959586;28;20196;-69
2022/11/23 10:24:50;;;;;;;1999.90;999.90;;;;;;;13.19;100.00;94111.16;4981124;28;20704;-68
2022/11/23 10:27:19;;;;;;;1999.90;999.90;;;;;;;13.17;100.00;94108.09;4981749;28;20180;-67
2022/11/23 10:29:45;;;;;;;1999.90;999.90;;;;;;;12.91;100.00;94107.50;4998622;28;20176;-68
2022/11/23 10:32:25;;;;;;;1999.90;999.90;;;;;;;12.41;100.00;94107.03;4981001;28;20274;-68
2022/11/23 10:35:10;;;;;;;1999.90;999.90;;;;;;;11.96;100.00;94120.38;4981968;28;20184;-63
2022/11/23 10:37:38;;;;;;;1999.90;999.90;;;;;;;11.57;100.00;94115.41;4981158;28;20211;-63
2022/11/23 10:40:10;;;;;;;1999.90;999.90;;;;;;;11.41;100.00;94102.66;4980733;28;20176;-63
2022/11/23 10:42:43;;;;;;;1999.90;999.90;;;;;;;11.19;100.00;94101.03;4981377;28;20168;-63
2022/11/23 10:45:22;;;;;;;1999.90;999.90;;;;;;;10.53;100.00;94103.84;4980805;28;20204;-63
2022/11/23 10:47:59;;;;;;;1999.90;999.90;;;;;;;10.09;100.00;94103.50;4981582;28;20327;-62
2022/11/23 10:50:28;;;;;;;1999.90;999.90;;;;;;;9.72;100.00;94106.78;4980814;28;20214;-62
2022/11/23 10:53:18;;;;;;;1999.90;999.90;;;;;;;9.70;100.00;94103.72;4981094;28;20180;-67
2022/11/23 10:55:54;;;;;;;1999.90;999.90;;;;;;;9.58;100.00;94101.69;4997774;28;20329;-71